Time;durP1;ratioP1;P1;durP2;ratioP2;P2;SDS_P1;SDS_P2;PMS_P1;PMS_P2;Temp;Humidity;BMP_temperature;BMP_pressure;BME280_temperature;BME280_humidity;BME280_pressure;Samples;Min_cycle;Max_cycle;Signal;HPM_P1;HPM_P2
2021/01/21 00:01:50;;;;;;;25.27;23.88;;;7.40;65.10;;;;;;5033060;28;20255;-78
2021/01/21 00:04:16;;;;;;;24.85;23.45;;;7.40;65.40;;;;;;5033355;28;20288;-78
2021/01/21 00:06:43;;;;;;;26.98;25.50;;;7.40;65.20;;;;;;5032790;28;20304;-78
2021/01/21 00:09:10;;;;;;;25.63;24.02;;;7.40;65.50;;;;;;5032907;28;20213;-78
2021/01/21 00:11:37;;;;;;;26.08;24.42;;;7.40;64.50;;;;;;5033374;28;20193;-78
2021/01/21 00:14:04;;;;;;;25.60;24.20;;;7.40;64.10;;;;;;5033412;28;20203;-77
2021/01/21 00:16:30;;;;;;;26.75;25.20;;;7.40;64.50;;;;;;5033037;28;20257;-78
2021/01/21 00:18:56;;;;;;;26.30;24.80;;;7.30;65.00;;;;;;5033078;28;20663;-78
2021/01/21 00:21:22;;;;;;;26.52;24.92;;;7.30;65.30;;;;;;5033174;28;20198;-78
2021/01/21 00:23:49;;;;;;;26.15;24.45;;;7.30;65.40;;;;;;5033132;28;20562;-78
2021/01/21 00:26:16;;;;;;;26.85;25.00;;;7.30;67.40;;;;;;5032353;28;20211;-78
2021/01/21 00:28:43;;;;;;;26.38;24.65;;;7.20;68.20;;;;;;5032933;28;20197;-78
2021/01/21 00:31:09;;;;;;;26.83;25.13;;;7.20;67.50;;;;;;5032784;28;20582;-78
2021/01/21 00:33:36;;;;;;;25.98;24.38;;;7.10;66.80;;;;;;5032898;28;20204;-78
2021/01/21 00:36:02;;;;;;;26.45;24.95;;;7.10;66.60;;;;;;5032699;28;20252;-78
2021/01/21 00:38:29;;;;;;;25.17;23.77;;;7.00;66.90;;;;;;5033200;28;20217;-78
2021/01/21 00:40:55;;;;;;;26.00;24.40;;;7.00;67.10;;;;;;5033271;28;20200;-78
2021/01/21 00:43:22;;;;;;;26.00;24.40;;;6.90;66.80;;;;;;5032945;28;20203;-78
2021/01/21 00:45:51;;;;;;;26.67;25.10;;;6.90;66.90;;;;;;5032633;28;20201;-78
2021/01/21 00:48:17;;;;;;;27.02;25.27;;;6.90;67.10;;;;;;5032488;28;20255;-78
2021/01/21 00:50:43;;;;;;;26.52;24.83;;;6.90;67.50;;;;;;5032548;28;20221;-78
2021/01/21 00:53:10;;;;;;;26.25;24.75;;;6.70;70.70;;;;;;5032574;28;20197;-78
2021/01/21 00:55:36;;;;;;;25.90;24.30;;;6.70;69.60;;;;;;5032322;28;20201;-78
2021/01/21 00:58:02;;;;;;;26.80;25.25;;;6.70;69.00;;;;;;5032406;28;20225;-78
2021/01/21 01:00:29;;;;;;;26.67;25.08;;;6.70;68.20;;;;;;5032470;28;20202;-78
2021/01/21 01:02:56;;;;;;;25.67;24.17;;;6.80;68.20;;;;;;5032168;28;20208;-78
2021/01/21 01:05:22;;;;;;;25.73;24.33;;;6.70;70.50;;;;;;5032529;28;20229;-77
2021/01/21 01:07:49;;;;;;;26.80;25.20;;;6.70;69.90;;;;;;5031956;28;20232;-78
2021/01/21 01:10:15;;;;;;;26.45;24.77;;;6.70;70.30;;;;;;5032300;28;20725;-78
2021/01/21 01:12:42;;;;;;;25.75;24.35;;;6.60;71.30;;;;;;5032472;28;20199;-78
2021/01/21 01:15:09;;;;;;;26.10;24.40;;;6.60;72.60;;;;;;5032529;28;20204;-78
2021/01/21 01:17:36;;;;;;;25.92;24.42;;;6.50;73.20;;;;;;5032060;28;20248;-78
2021/01/21 01:20:04;;;;;;;25.45;23.95;;;6.60;71.10;;;;;;5032296;28;20223;-78
2021/01/21 01:22:30;;;;;;;25.58;24.27;;;6.70;69.50;;;;;;5032380;28;20205;-78
2021/01/21 01:24:56;;;;;;;25.17;23.80;;;6.60;69.60;;;;;;5032319;28;20671;-78
2021/01/21 01:27:23;;;;;;;25.52;23.95;;;6.60;69.80;;;;;;5031956;28;20221;-77
2021/01/21 01:29:49;;;;;;;26.23;24.73;;;6.60;70.40;;;;;;5032069;28;20221;-77
2021/01/21 01:32:15;;;;;;;25.20;23.63;;;6.60;70.90;;;;;;5032110;28;20198;-78
2021/01/21 01:34:42;;;;;;;24.77;23.27;;;6.70;70.00;;;;;;5032320;28;20193;-78
2021/01/21 01:37:09;;;;;;;25.10;23.60;;;6.60;71.20;;;;;;5034650;28;20275;-78
2021/01/21 01:39:35;;;;;;;24.90;23.40;;;6.50;72.70;;;;;;5036449;28;20196;-78
2021/01/21 01:42:08;;;;;;;25.15;23.75;;;6.50;69.70;;;;;;5035865;28;20200;-78
2021/01/21 01:44:35;;;;;;;24.40;23.10;;;6.60;69.60;;;;;;5035821;28;20198;-78
2021/01/21 01:47:01;;;;;;;25.60;24.00;;;6.60;68.40;;;;;;5035455;28;20586;-78
2021/01/21 01:49:28;;;;;;;25.02;23.42;;;6.60;68.10;;;;;;5035728;28;20228;-78
2021/01/21 01:51:55;;;;;;;24.77;23.27;;;6.60;68.20;;;;;;5035735;28;20291;-78
2021/01/21 01:54:22;;;;;;;24.17;22.73;;;6.70;67.70;;;;;;5035552;28;20270;-78
2021/01/21 01:56:49;;;;;;;23.75;22.45;;;6.70;67.60;;;;;;5035311;28;20586;-78
2021/01/21 01:59:17;;;;;;;25.30;23.90;;;6.90;66.70;;;;;;5035532;28;20200;-78
2021/01/21 02:01:43;;;;;;;24.15;22.75;;;6.90;67.00;;;;;;5035329;28;20197;-78
2021/01/21 02:04:10;;;;;;;23.63;22.33;;;7.00;66.90;;;;;;5035706;28;20681;-78
2021/01/21 02:06:37;;;;;;;24.25;22.90;;;7.00;67.10;;;;;;5035117;28;20307;-78
2021/01/21 02:09:04;;;;;;;23.50;22.30;;;7.00;66.60;;;;;;5034865;28;20213;-78
2021/01/21 02:11:54;;;;;;;24.17;22.88;;;7.10;65.50;;;;;;5035446;28;20225;-78
2021/01/21 02:14:25;;;;;;;23.00;21.77;;;7.20;64.30;;;;;;5035325;28;20202;-78
2021/01/21 02:16:59;;;;;;;23.45;22.15;;;7.30;63.40;;;;;;5035154;28;20308;-78
2021/01/21 02:20:04;;;;;;;23.70;22.40;;;7.50;63.00;;;;;;5035228;28;20192;-78
2021/01/21 02:23:02;;;;;;;24.00;22.70;;;7.60;62.40;;;;;;5035532;28;20233;-78
2021/01/21 02:25:39;;;;;;;24.00;22.70;;;7.70;62.60;;;;;;5037837;28;20677;-78
2021/01/21 02:28:32;;;;;;;23.38;22.17;;;7.70;62.90;;;;;;5037189;28;20235;-78
2021/01/21 02:31:04;;;;;;;23.27;21.98;;;7.80;61.70;;;;;;5034969;28;20217;-78
2021/01/21 02:33:55;;;;;;;24.30;22.85;;;8.00;60.60;;;;;;5035151;28;20197;-78
2021/01/21 02:36:26;;;;;;;23.50;22.20;;;8.10;60.90;;;;;;5034570;28;20201;-78
2021/01/21 02:38:53;;;;;;;24.10;22.80;;;8.20;60.80;;;;;;5034935;28;20208;-78
2021/01/21 02:41:20;;;;;;;24.88;23.58;;;8.20;61.10;;;;;;5034838;28;20771;-78
2021/01/21 02:43:51;;;;;;;25.17;23.77;;;8.10;61.00;;;;;;5034779;28;20558;-78
2021/01/21 02:46:17;;;;;;;24.50;23.20;;;8.10;60.60;;;;;;5034510;28;20200;-78
2021/01/21 02:48:45;;;;;;;23.52;22.33;;;8.20;60.50;;;;;;5033923;28;20193;-77
2021/01/21 02:51:18;;;;;;;23.80;22.38;;;8.20;60.50;;;;;;5034517;28;20198;-78
2021/01/21 02:53:49;;;;;;;23.65;22.35;;;8.20;60.80;;;;;;5034631;28;20208;-78
2021/01/21 02:56:21;;;;;;;23.25;21.95;;;8.20;60.80;;;;;;5034275;28;20201;-78
2021/01/21 02:58:50;;;;;;;23.48;22.27;;;8.20;60.90;;;;;;5034408;28;20233;-78
2021/01/21 03:01:17;;;;;;;24.20;22.70;;;8.20;61.10;;;;;;5034432;28;20198;-78
2021/01/21 03:03:48;;;;;;;23.33;22.02;;;8.20;61.10;;;;;;5033950;28;20248;-78
2021/01/21 03:06:16;;;;;;;23.48;22.27;;;8.20;61.20;;;;;;5034170;28;20205;-78
2021/01/21 03:08:43;;;;;;;24.85;23.15;;;8.20;61.00;;;;;;5033923;28;20193;-78
2021/01/21 03:11:10;;;;;;;23.90;22.60;;;8.20;60.10;;;;;;5034286;28;20205;-78
2021/01/21 03:13:38;;;;;;;24.27;22.70;;;8.30;59.00;;;;;;5034154;28;20223;-78
2021/01/21 03:16:06;;;;;;;24.13;22.83;;;8.50;57.60;;;;;;5033968;28;20193;-78
2021/01/21 03:18:32;;;;;;;23.65;22.35;;;8.70;56.80;;;;;;5034205;28;20197;-78
2021/01/21 03:21:00;;;;;;;23.90;22.67;;;8.80;56.10;;;;;;5034107;28;20221;-78
2021/01/21 03:23:26;;;;;;;24.17;22.70;;;8.90;55.10;;;;;;5034108;28;20197;-78
2021/01/21 03:25:52;;;;;;;24.17;22.85;;;9.00;55.80;;;;;;5033666;28;20193;-78
2021/01/21 03:28:19;;;;;;;23.63;22.42;;;8.90;56.50;;;;;;5033785;28;20560;-78
2021/01/21 03:30:45;;;;;;;24.65;23.35;;;8.90;56.90;;;;;;5033621;28;20221;-78
2021/01/21 03:33:11;;;;;;;23.95;22.65;;;8.80;56.90;;;;;;5033988;28;20208;-78
2021/01/21 03:35:38;;;;;;;24.15;22.83;;;8.90;56.40;;;;;;5033588;28;20193;-78
2021/01/21 03:38:05;;;;;;;24.92;23.52;;;8.90;56.80;;;;;;5033606;28;20221;-78
2021/01/21 03:40:31;;;;;;;23.08;21.50;;;9.00;56.80;;;;;;5033654;28;20193;-78
2021/01/21 03:42:58;;;;;;;23.10;21.90;;;9.00;56.40;;;;;;5033390;28;20193;-78
2021/01/21 03:45:24;;;;;;;23.95;22.65;;;9.00;56.00;;;;;;5033541;28;20198;-78
2021/01/21 03:47:51;;;;;;;23.63;22.42;;;9.00;56.10;;;;;;5033345;28;20221;-78
2021/01/21 03:50:17;;;;;;;23.30;22.10;;;8.90;56.20;;;;;;5033511;28;20217;-78
2021/01/21 03:52:43;;;;;;;24.75;23.35;;;8.90;56.00;;;;;;5033232;28;20675;-78
2021/01/21 03:55:11;;;;;;;23.80;22.60;;;9.00;55.60;;;;;;5033208;28;20263;-78
2021/01/21 03:57:37;;;;;;;23.60;22.30;;;8.90;55.10;;;;;;5033053;28;20223;-78
2021/01/21 04:00:05;;;;;;;24.95;23.65;;;9.10;55.20;;;;;;5032436;28;20285;-78
2021/01/21 04:02:31;;;;;;;23.65;22.45;;;9.10;54.80;;;;;;5032974;28;20201;-78
2021/01/21 04:04:58;;;;;;;24.00;22.70;;;9.10;55.50;;;;;;5033367;28;20685;-78
2021/01/21 04:07:24;;;;;;;24.88;23.58;;;9.00;55.10;;;;;;5032849;28;20565;-78
2021/01/21 04:09:50;;;;;;;24.92;23.42;;;9.10;55.00;;;;;;5033055;28;20221;-78
2021/01/21 04:12:18;;;;;;;24.00;22.80;;;9.00;55.30;;;;;;5033053;28;20674;-78
2021/01/21 04:14:44;;;;;;;24.20;22.90;;;8.90;55.60;;;;;;5033119;28;20729;-78
2021/01/21 04:17:10;;;;;;;25.30;23.83;;;8.90;56.80;;;;;;5032802;28;20217;-78
2021/01/21 04:19:37;;;;;;;23.05;21.85;;;9.00;55.90;;;;;;5032894;28;20284;-78
2021/01/21 04:22:03;;;;;;;23.63;22.42;;;9.00;55.40;;;;;;5032922;28;20215;-78
2021/01/21 04:24:29;;;;;;;24.08;22.67;;;9.00;55.50;;;;;;5032971;28;20578;-78
2021/01/21 04:26:56;;;;;;;23.30;22.10;;;9.00;55.50;;;;;;5032631;28;20222;-78
2021/01/21 04:29:23;;;;;;;23.65;22.35;;;9.00;55.20;;;;;;5032825;28;20259;-78
2021/01/21 04:31:50;;;;;;;22.90;21.70;;;9.00;55.60;;;;;;5032998;28;20193;-78
2021/01/21 04:34:16;;;;;;;24.15;22.83;;;9.00;55.40;;;;;;5032881;28;20284;-78
2021/01/21 04:36:42;;;;;;;23.20;22.00;;;9.00;55.60;;;;;;5032523;28;20218;-78
2021/01/21 04:39:09;;;;;;;24.33;22.92;;;9.00;55.70;;;;;;5032733;28;20634;-78
2021/01/21 04:41:35;;;;;;;25.85;24.42;;;9.00;55.80;;;;;;5032721;28;20201;-78
2021/01/21 04:44:02;;;;;;;23.20;22.00;;;8.90;56.10;;;;;;5032655;28;20288;-78
2021/01/21 04:46:29;;;;;;;24.20;22.67;;;9.00;55.90;;;;;;5032401;28;20217;-78
2021/01/21 04:48:56;;;;;;;25.55;23.98;;;8.90;56.10;;;;;;5032472;28;20197;-78
2021/01/21 04:51:24;;;;;;;24.85;23.45;;;8.90;56.50;;;;;;5032621;28;20197;-78
2021/01/21 04:53:53;;;;;;;23.13;21.92;;;8.90;56.90;;;;;;5032382;28;20201;-78
2021/01/21 04:56:25;;;;;;;24.55;23.05;;;8.90;56.50;;;;;;5032272;28;20198;-78
2021/01/21 04:58:54;;;;;;;25.40;23.90;;;8.90;56.40;;;;;;5032608;28;20217;-78
2021/01/21 05:01:21;;;;;;;24.30;23.10;;;8.80;56.30;;;;;;5032399;28;20730;-78
2021/01/21 05:03:48;;;;;;;23.60;22.20;;;8.80;56.30;;;;;;5032073;28;20201;-78
2021/01/21 05:06:15;;;;;;;23.25;21.95;;;8.90;56.10;;;;;;5032226;28;20587;-78
2021/01/21 05:08:42;;;;;;;22.80;21.50;;;8.90;56.50;;;;;;5032108;28;20197;-77
2021/01/21 05:11:08;;;;;;;23.77;22.55;;;9.00;56.50;;;;;;5033414;28;20227;-78
2021/01/21 05:13:35;;;;;;;23.60;22.40;;;8.90;57.20;;;;;;5036498;28;20201;-78
2021/01/21 05:16:01;;;;;;;23.70;22.30;;;8.90;56.60;;;;;;5036232;28;20559;-78
2021/01/21 05:18:29;;;;;;;22.90;21.70;;;9.00;55.90;;;;;;5036060;28;20213;-78
2021/01/21 05:20:56;;;;;;;22.95;21.65;;;9.10;55.80;;;;;;5036152;28;20197;-77
2021/01/21 05:23:24;;;;;;;23.15;21.95;;;9.10;55.40;;;;;;5036183;28;20205;-78
2021/01/21 05:25:51;;;;;;;23.40;22.10;;;9.20;55.90;;;;;;5036061;28;20197;-78
2021/01/21 05:28:18;;;;;;;22.92;21.70;;;9.20;55.00;;;;;;5036026;28;20223;-78
2021/01/21 05:30:46;;;;;;;23.75;22.35;;;9.20;54.90;;;;;;5036018;28;20218;-78
2021/01/21 05:33:14;;;;;;;25.15;23.75;;;9.30;54.90;;;;;;5039095;28;20221;-78
2021/01/21 05:35:42;;;;;;;22.77;21.48;;;9.40;54.50;;;;;;5040910;28;20197;-78
2021/01/21 05:38:10;;;;;;;22.85;21.55;;;9.40;54.60;;;;;;5038162;28;20217;-78
2021/01/21 05:40:37;;;;;;;23.67;22.38;;;9.40;54.40;;;;;;5036148;28;20204;-77
2021/01/21 05:43:04;;;;;;;24.80;23.30;;;9.50;54.10;;;;;;5035895;28;20288;-78
2021/01/21 05:45:30;;;;;;;23.38;22.08;;;9.50;54.10;;;;;;5035719;28;20198;-78
2021/01/21 05:47:57;;;;;;;23.73;22.33;;;9.50;54.00;;;;;;5035694;28;20220;-78
2021/01/21 05:50:24;;;;;;;25.20;24.00;;;9.60;54.40;;;;;;5035520;28;20556;-77
2021/01/21 05:52:52;;;;;;;23.00;21.80;;;9.70;53.80;;;;;;5035644;28;20267;-78
2021/01/21 05:55:22;;;;;;;24.17;22.65;;;9.70;53.70;;;;;;5035457;28;20205;-78
2021/01/21 05:57:50;;;;;;;23.75;22.55;;;9.80;53.40;;;;;;5035403;28;20295;-78
2021/01/21 06:00:17;;;;;;;23.30;22.00;;;9.80;53.20;;;;;;5035679;28;20201;-78
2021/01/21 06:02:44;;;;;;;24.13;22.73;;;9.80;53.10;;;;;;5035126;28;20455;-78
2021/01/21 06:05:14;;;;;;;25.10;23.80;;;9.90;52.80;;;;;;5035528;28;20447;-78
2021/01/21 06:07:42;;;;;;;23.95;22.50;;;9.90;52.80;;;;;;5034821;28;20232;-78
2021/01/21 06:10:10;;;;;;;23.60;22.40;;;10.00;52.60;;;;;;5035265;28;20220;-78
2021/01/21 06:12:38;;;;;;;23.60;22.40;;;10.10;52.30;;;;;;5035184;28;20280;-78
2021/01/21 06:15:05;;;;;;;22.73;21.53;;;10.10;52.60;;;;;;5035196;28;20201;-78
2021/01/21 06:17:32;;;;;;;23.70;22.30;;;10.10;52.20;;;;;;5034966;28;20491;-78
2021/01/21 06:19:58;;;;;;;25.10;23.90;;;10.20;52.10;;;;;;5035250;28;20862;-78
2021/01/21 06:22:28;;;;;;;23.67;22.47;;;10.20;52.00;;;;;;5034156;28;20451;-78
2021/01/21 06:24:59;;;;;;;22.07;20.97;;;10.20;52.10;;;;;;5035129;28;20539;-78
2021/01/21 06:27:27;;;;;;;23.60;22.30;;;10.20;51.70;;;;;;5034740;28;20965;-78
2021/01/21 06:29:56;;;;;;;24.97;23.87;;;10.30;51.70;;;;;;5034836;28;20506;-78
2021/01/21 06:32:31;;;;;;;23.60;22.30;;;10.30;51.60;;;;;;5034890;28;20883;-78
2021/01/21 06:35:02;;;;;;;24.27;22.87;;;10.30;51.40;;;;;;5035005;28;20456;-78
2021/01/21 06:37:31;;;;;;;23.73;22.53;;;10.30;51.40;;;;;;5034707;28;20478;-78
2021/01/21 06:40:04;;;;;;;22.70;21.50;;;10.20;51.80;;;;;;5034836;28;20451;-78
2021/01/21 06:42:35;;;;;;;22.47;21.37;;;10.20;51.80;;;;;;5034803;28;20451;-78
2021/01/21 06:45:03;;;;;;;23.17;21.98;;;10.30;51.90;;;;;;5034797;28;20458;-78
2021/01/21 06:47:31;;;;;;;24.10;22.60;;;10.30;51.60;;;;;;5034485;28;20217;-78
2021/01/21 06:49:59;;;;;;;24.93;23.50;;;10.30;51.50;;;;;;5034510;28;20267;-78
2021/01/21 06:52:26;;;;;;;23.37;22.00;;;10.30;51.90;;;;;;5034441;28;20448;-78
2021/01/21 06:54:54;;;;;;;22.97;21.77;;;10.30;52.10;;;;;;5034451;28;20463;-78
2021/01/21 06:57:46;;;;;;;22.97;21.77;;;10.40;52.10;;;;;;5034315;28;20471;-78
2021/01/21 07:00:15;;;;;;;23.07;21.87;;;10.50;52.30;;;;;;5034355;28;20809;-78
2021/01/21 07:02:43;;;;;;;24.00;22.50;;;10.50;52.60;;;;;;5034085;28;20451;-78
2021/01/21 07:05:11;;;;;;;25.53;24.17;;;10.50;52.90;;;;;;5034469;28;20471;-78
2021/01/21 07:08:06;;;;;;;23.63;22.33;;;10.50;53.30;;;;;;5033810;28;20479;-78
2021/01/21 07:10:41;;;;;;;24.47;23.27;;;10.60;53.80;;;;;;5034235;28;20472;-78
2021/01/21 07:13:09;;;;;;;25.57;24.37;;;10.60;54.60;;;;;;5034136;28;20451;-78
2021/01/21 07:15:42;;;;;;;23.03;21.73;;;10.60;55.30;;;;;;5033943;28;20470;-78
2021/01/21 07:18:15;;;;;;;23.93;22.63;;;10.70;56.10;;;;;;5033990;28;21005;-78
2021/01/21 07:21:13;;;;;;;23.70;22.40;;;10.60;57.00;;;;;;5033987;28;20502;-78
2021/01/21 07:23:44;;;;;;;24.00;22.80;;;10.60;57.70;;;;;;5033996;28;20825;-78
2021/01/21 07:26:35;;;;;;;24.77;23.47;;;10.60;58.90;;;;;;5033687;28;20460;-78
2021/01/21 07:29:07;;;;;;;23.57;22.27;;;10.70;59.10;;;;;;5033996;28;20456;-78
2021/01/21 07:32:04;;;;;;;23.30;22.10;;;10.70;59.50;;;;;;5033717;28;20510;-78
2021/01/21 07:34:45;;;;;;;23.00;21.80;;;10.70;60.20;;;;;;5028190;28;20452;-78
2021/01/21 07:37:22;;;;;;;23.10;21.90;;;10.70;60.80;;;;;;5033549;28;20985;-77
2021/01/21 07:40:04;;;;;;;23.50;22.30;;;10.70;60.90;;;;;;5033627;28;20450;-78
2021/01/21 07:42:51;;;;;;;23.30;22.10;;;10.80;61.00;;;;;;5031176;28;20444;-78
2021/01/21 07:45:28;;;;;;;22.97;21.77;;;10.70;61.40;;;;;;5033594;28;20456;-78
2021/01/21 07:47:57;;;;;;;22.63;21.53;;;10.70;61.60;;;;;;5033478;28;20472;-78
2021/01/21 07:50:38;;;;;;;23.20;21.90;;;10.80;61.60;;;;;;5033567;28;20482;-78
2021/01/21 07:53:16;;;;;;;22.87;21.67;;;10.90;61.60;;;;;;5034046;28;20459;-78
2021/01/21 07:55:42;;;;;;;23.07;21.87;;;10.90;61.20;;;;;;5033790;28;20459;-78
2021/01/21 07:58:23;;;;;;;23.37;22.17;;;11.00;61.20;;;;;;5033928;28;21157;-78
2021/01/21 08:00:51;;;;;;;23.80;22.60;;;11.10;61.10;;;;;;5033690;28;20451;-78
2021/01/21 08:03:33;;;;;;;25.00;23.80;;;11.10;61.00;;;;;;5033305;28;20503;-78
2021/01/21 08:06:06;;;;;;;23.57;22.27;;;11.10;60.70;;;;;;5033113;28;20456;-78
2021/01/21 08:08:33;;;;;;;22.50;21.30;;;11.10;60.70;;;;;;5033353;28;20462;-78
2021/01/21 08:11:04;;;;;;;23.10;21.90;;;11.10;60.70;;;;;;5033402;28;20541;-78
2021/01/21 08:13:30;;;;;;;23.60;22.27;;;11.20;60.80;;;;;;5034940;28;20798;-78
2021/01/21 08:15:57;;;;;;;25.83;24.53;;;11.20;60.80;;;;;;5036492;28;20864;-78
2021/01/21 08:18:24;;;;;;;23.80;22.60;;;11.30;60.60;;;;;;5035057;28;20476;-78
2021/01/21 08:20:51;;;;;;;23.73;22.50;;;11.20;60.80;;;;;;5033281;28;20452;-78
2021/01/21 08:23:18;;;;;;;24.70;23.40;;;11.30;60.60;;;;;;5033122;28;20787;-78
2021/01/21 08:25:46;;;;;;;24.70;23.40;;;11.40;60.30;;;;;;5032827;28;20456;-78
2021/01/21 08:28:15;;;;;;;24.70;23.40;;;11.40;60.40;;;;;;5032769;28;21034;-78
2021/01/21 08:30:42;;;;;;;24.00;22.77;;;11.50;60.40;;;;;;5032919;28;20476;-78
2021/01/21 08:33:12;;;;;;;25.97;24.67;;;11.50;60.50;;;;;;5032918;28;20454;-78
2021/01/21 08:35:44;;;;;;;25.77;24.57;;;11.60;60.50;;;;;;5032734;28;20836;-78
2021/01/21 08:38:14;;;;;;;25.10;23.90;;;11.60;60.50;;;;;;5032940;28;20467;-78
2021/01/21 08:40:42;;;;;;;23.80;22.60;;;11.70;60.60;;;;;;5032672;28;20455;-78
2021/01/21 08:43:10;;;;;;;25.20;23.70;;;11.70;61.00;;;;;;5037828;28;20456;-78
2021/01/21 08:45:36;;;;;;;24.00;22.80;;;11.80;60.70;;;;;;5037834;28;20464;-78
2021/01/21 08:48:03;;;;;;;24.23;22.83;;;11.80;60.70;;;;;;5034380;28;21000;-78
2021/01/21 08:50:36;;;;;;;23.90;22.60;;;11.80;61.00;;;;;;5032933;28;20545;-78
2021/01/21 08:53:05;;;;;;;23.37;22.17;;;11.90;61.00;;;;;;5032772;28;20456;-78
2021/01/21 08:55:40;;;;;;;24.40;23.20;;;11.90;60.80;;;;;;5032323;28;20471;-78
2021/01/21 08:58:08;;;;;;;23.83;22.63;;;12.00;60.70;;;;;;5032866;28;20468;-78
2021/01/21 09:00:36;;;;;;;23.30;22.10;;;12.00;60.70;;;;;;5032619;28;20942;-78
2021/01/21 09:03:03;;;;;;;25.07;23.77;;;12.00;60.90;;;;;;5032353;28;20471;-78
2021/01/21 09:05:30;;;;;;;24.77;23.37;;;12.00;60.50;;;;;;5032866;28;20452;-78
2021/01/21 09:08:07;;;;;;;23.70;22.50;;;12.00;60.50;;;;;;5032697;28;21050;-78
2021/01/21 09:10:43;;;;;;;25.40;24.10;;;12.10;60.10;;;;;;5033450;28;20479;-78
2021/01/21 09:13:11;;;;;;;24.70;23.20;;;12.10;60.10;;;;;;5033330;28;20448;-78
2021/01/21 09:15:55;;;;;;;24.90;23.60;;;12.10;60.00;;;;;;5032991;28;20463;-78
2021/01/21 09:18:24;;;;;;;24.13;22.93;;;12.10;60.10;;;;;;5033146;28;20483;-78
2021/01/21 09:21:10;;;;;;;24.50;23.13;;;12.20;60.10;;;;;;5032929;28;20451;-78
2021/01/21 09:23:36;;;;;;;24.23;22.93;;;12.20;60.20;;;;;;5034062;28;20452;-78
2021/01/21 09:26:12;;;;;;;23.73;22.60;;;12.30;60.00;;;;;;5032822;28;20452;-78
2021/01/21 09:28:52;;;;;;;24.63;23.33;;;12.30;60.10;;;;;;5033189;28;20941;-78
2021/01/21 09:31:21;;;;;;;24.50;23.20;;;12.30;60.20;;;;;;5033742;28;20483;-78
2021/01/21 09:33:49;;;;;;;24.17;22.90;;;12.40;60.00;;;;;;5034238;28;20448;-78
2021/01/21 09:36:15;;;;;;;23.80;22.60;;;12.30;60.10;;;;;;5033181;28;20452;-78
2021/01/21 09:38:41;;;;;;;25.77;24.37;;;12.30;60.20;;;;;;5033448;28;20464;-78
2021/01/21 09:41:08;;;;;;;24.87;23.47;;;12.40;60.20;;;;;;5032418;28;20933;-78
2021/01/21 09:43:35;;;;;;;24.67;23.23;;;12.40;60.30;;;;;;5032198;28;20455;-78
2021/01/21 09:46:02;;;;;;;24.70;23.17;;;12.40;60.60;;;;;;5032083;28;20499;-78
2021/01/21 09:48:29;;;;;;;23.30;22.10;;;12.30;60.60;;;;;;5032285;28;20479;-78
2021/01/21 09:50:55;;;;;;;24.47;23.17;;;12.30;60.70;;;;;;5032105;28;20482;-78
2021/01/21 09:53:21;;;;;;;25.40;24.10;;;12.30;60.90;;;;;;5032361;28;20987;-78
2021/01/21 09:55:50;;;;;;;24.10;22.80;;;12.30;61.30;;;;;;5032018;28;20836;-78
2021/01/21 09:58:16;;;;;;;25.40;24.00;;;12.30;61.10;;;;;;5033471;28;20471;-78
2021/01/21 10:00:43;;;;;;;24.57;23.20;;;12.40;61.60;;;;;;5035682;28;20444;-78
2021/01/21 10:03:10;;;;;;;25.67;24.37;;;12.40;61.30;;;;;;5035361;28;20470;-78
2021/01/21 10:05:36;;;;;;;24.27;22.90;;;12.50;61.30;;;;;;5035393;28;20463;-78
2021/01/21 10:08:03;;;;;;;23.10;21.90;;;12.50;61.30;;;;;;5035351;28;20468;-78
2021/01/21 10:10:29;;;;;;;23.90;22.70;;;12.60;61.00;;;;;;5035576;28;20480;-78
2021/01/21 10:12:55;;;;;;;23.87;22.67;;;12.60;60.90;;;;;;5035581;28;20452;-78
2021/01/21 10:15:21;;;;;;;23.20;22.07;;;12.60;61.00;;;;;;5035565;28;20454;-78
2021/01/21 10:17:49;;;;;;;24.30;23.00;;;12.70;60.90;;;;;;5035359;28;20482;-78
2021/01/21 10:20:16;;;;;;;24.63;23.33;;;12.80;60.70;;;;;;5035344;28;20864;-78
2021/01/21 10:22:43;;;;;;;24.30;23.10;;;12.90;60.30;;;;;;5035339;28;20538;-78
2021/01/21 10:25:09;;;;;;;24.03;22.83;;;13.00;60.30;;;;;;5040219;28;20889;-78
2021/01/21 10:27:36;;;;;;;24.93;23.53;;;13.00;60.80;;;;;;5036343;28;21052;-78
2021/01/21 10:30:04;;;;;;;24.03;22.70;;;13.10;60.30;;;;;;5035155;28;20997;-78
2021/01/21 10:32:31;;;;;;;25.07;23.67;;;13.30;59.70;;;;;;5034978;28;20463;-78
2021/01/21 10:34:58;;;;;;;24.63;23.33;;;13.40;59.70;;;;;;5035102;28;20448;-78
2021/01/21 10:37:25;;;;;;;25.30;23.93;;;13.60;59.30;;;;;;5034889;28;20503;-78
2021/01/21 10:39:51;;;;;;;24.07;22.80;;;13.70;59.20;;;;;;5034936;28;20502;-78
2021/01/21 10:42:17;;;;;;;25.40;23.60;;;13.80;59.20;;;;;;5034987;28;20462;-78
2021/01/21 10:44:44;;;;;;;24.10;22.80;;;13.80;58.90;;;;;;5034829;28;20538;-78
2021/01/21 10:47:10;;;;;;;23.63;22.43;;;13.90;58.70;;;;;;5034495;28;20479;-78
2021/01/21 10:49:36;;;;;;;24.63;23.23;;;13.90;58.60;;;;;;5034685;28;20455;-78
2021/01/21 10:52:04;;;;;;;23.77;22.47;;;13.90;58.40;;;;;;5034572;28;20527;-78
2021/01/21 10:54:30;;;;;;;25.10;23.80;;;13.90;58.30;;;;;;5034602;28;20464;-78
2021/01/21 10:56:56;;;;;;;23.30;22.10;;;13.80;59.70;;;;;;5034518;28;20475;-78
2021/01/21 10:59:23;;;;;;;24.40;23.10;;;13.80;60.50;;;;;;5034477;28;20455;-78
2021/01/21 11:01:49;;;;;;;24.50;23.20;;;13.90;60.40;;;;;;5034172;28;20954;-79
2021/01/21 11:04:15;;;;;;;26.97;25.57;;;13.90;61.10;;;;;;5034303;28;20486;-78
2021/01/21 11:06:42;;;;;;;23.93;22.67;;;14.10;60.40;;;;;;5034013;28;20479;-78
2021/01/21 11:09:09;;;;;;;24.77;23.47;;;14.20;60.00;;;;;;5033568;28;20459;-78
2021/01/21 11:11:35;;;;;;;23.00;21.90;;;14.10;59.80;;;;;;5034230;28;20476;-78
2021/01/21 11:14:02;;;;;;;23.87;22.67;;;14.20;60.40;;;;;;5034240;28;20458;-78
2021/01/21 11:16:28;;;;;;;24.30;23.00;;;14.30;60.20;;;;;;5033989;28;20483;-78
2021/01/21 11:18:54;;;;;;;23.33;22.03;;;14.30;59.70;;;;;;5034008;28;20539;-78
2021/01/21 11:21:21;;;;;;;23.43;22.23;;;14.30;59.70;;;;;;5033834;28;20799;-78
2021/01/21 11:23:47;;;;;;;23.10;21.90;;;14.30;60.10;;;;;;5034123;28;20455;-78
2021/01/21 11:26:14;;;;;;;23.60;22.40;;;14.30;59.90;;;;;;5033760;28;20546;-78
2021/01/21 11:28:41;;;;;;;24.00;22.70;;;14.40;59.40;;;;;;5033878;28;21023;-78
2021/01/21 11:31:09;;;;;;;23.93;22.73;;;14.30;59.60;;;;;;5033929;28;21009;-78
2021/01/21 11:33:35;;;;;;;23.10;21.83;;;14.30;59.80;;;;;;5033800;28;20451;-78
2021/01/21 11:36:01;;;;;;;23.40;22.20;;;14.40;59.90;;;;;;5033795;28;20541;-78
2021/01/21 11:38:28;;;;;;;23.00;21.90;;;14.50;59.20;;;;;;5033847;28;20526;-78
2021/01/21 11:40:54;;;;;;;23.70;22.50;;;14.40;59.00;;;;;;5033699;28;20448;-78
2021/01/21 11:43:21;;;;;;;24.50;23.20;;;14.40;59.80;;;;;;5033782;28;20807;-78
2021/01/21 11:45:47;;;;;;;24.10;22.80;;;14.40;59.10;;;;;;5033517;28;20979;-78
2021/01/21 11:48:15;;;;;;;23.10;22.00;;;14.40;58.60;;;;;;5033420;28;20476;-78
2021/01/21 11:50:41;;;;;;;24.10;22.90;;;14.40;58.70;;;;;;5034071;28;20492;-78
2021/01/21 11:53:07;;;;;;;24.20;22.70;;;14.40;58.40;;;;;;5034455;28;20814;-78
2021/01/21 11:55:34;;;;;;;23.60;22.30;;;14.40;58.60;;;;;;5033638;28;20499;-78
2021/01/21 11:58:00;;;;;;;24.23;23.03;;;14.40;58.80;;;;;;5033780;28;20605;-78
2021/01/21 12:00:27;;;;;;;24.37;23.07;;;14.50;58.60;;;;;;5033269;28;20474;-79
2021/01/21 12:02:55;;;;;;;24.50;23.20;;;14.40;59.80;;;;;;5032969;28;20456;-78
2021/01/21 12:05:22;;;;;;;25.00;23.70;;;14.50;58.20;;;;;;5033324;28;21171;-79
2021/01/21 12:07:48;;;;;;;25.57;24.17;;;14.50;57.70;;;;;;5032647;28;20467;-79
2021/01/21 12:10:18;;;;;;;24.00;22.50;;;14.50;57.60;;;;;;5033091;28;20498;-79
2021/01/21 12:12:44;;;;;;;23.20;22.00;;;14.50;57.50;;;;;;5033080;28;20452;-78
2021/01/21 12:15:12;;;;;;;24.20;22.63;;;14.50;57.90;;;;;;5033004;28;20546;-79
2021/01/21 12:17:39;;;;;;;23.87;22.47;;;14.60;57.40;;;;;;5034644;28;20659;-79
2021/01/21 12:20:06;;;;;;;25.77;24.37;;;14.70;58.00;;;;;;5033581;28;20981;-79
2021/01/21 12:22:33;;;;;;;24.10;22.80;;;14.80;57.10;;;;;;5032661;28;20452;-79
2021/01/21 12:24:59;;;;;;;23.90;22.70;;;14.70;57.50;;;;;;5033085;28;20479;-79
2021/01/21 12:27:25;;;;;;;23.90;22.70;;;14.80;57.40;;;;;;5032558;28;20483;-79
2021/01/21 12:29:52;;;;;;;23.57;22.37;;;14.90;57.00;;;;;;5032616;28;21020;-79
2021/01/21 12:32:18;;;;;;;23.97;22.77;;;15.00;56.80;;;;;;5032744;28;20463;-79
2021/01/21 12:34:45;;;;;;;24.13;22.83;;;15.00;56.70;;;;;;5033025;28;20467;-78
2021/01/21 12:37:12;;;;;;;24.30;23.00;;;15.00;57.00;;;;;;5032556;28;20486;-79
2021/01/21 12:39:38;;;;;;;25.67;24.37;;;15.00;56.90;;;;;;5032647;28;20455;-79